»·PEaware :: N360BG KMRY-KMFR

N360BG :: KMRY-KMFR

FLIGHT INFORMATION

Flight Status: Arrived
Operator: Privately registered:
United States
More flights under this callsign
Pilot: Brandon G. (13)
Aircraft: Unknown
(EPIC)
More flights by this aircraft type
Origin: KMRY Monterey Peninsula
United States
Destination: KMFR Rogue Valley Intl-Medford
United States
More flights between these airports :: More routes between these airports
Route: SHOEY V27 PYE
File this flight plan on PilotEdge
Remarks:
Altitude:
(Current/Filed)
24,000ft
Speed:
(Current/Filed)
295kts
Departed: 24-Jul-18 08:36 PM
Arrived: 24-Jul-18 09:47 PM
Distance/Time
Traveled:
350nm/1:10
Distance/Time
To Go:
Arrived

Flight Plot

Page will automatically refresh every two minutes.

Flight plan parsing failed; only flown route is shown


Map Options




Map Legend


Flown Route
Filed Route
Departure Airport
Arrival Airport
Navaid (VOR, NDB)
Fix

Horizontal Profiles

Position Reports

Time Latitude Longitude Heading Altitude Ground
Speed
24-Jul-18 20:23 36.589319 -121.857988 305 158ft 0kts
24-Jul-18 20:24 36.589319 -121.857988 305 158ft 0kts
24-Jul-18 20:25 36.589319 -121.857988 305 158ft 0kts
24-Jul-18 20:26 36.589319 -121.857988 305 158ft 0kts
24-Jul-18 20:27 36.589319 -121.857988 305 158ft 0kts
24-Jul-18 20:28 36.589319 -121.857988 305 158ft 0kts
24-Jul-18 20:29 36.589319 -121.857988 305 158ft 0kts
24-Jul-18 20:30 36.589319 -121.857989 305 158ft 0kts
24-Jul-18 20:31 36.589362 -121.858058 313 158ft 5kts
24-Jul-18 20:32 36.589481 -121.857451 95 158ft 0kts
24-Jul-18 20:33 36.588944 -121.852647 112 169ft 32kts
24-Jul-18 20:34 36.585146 -121.841885 113 228ft 35kts
24-Jul-18 20:35 36.582791 -121.834533 89 232ft 0kts
24-Jul-18 20:36 36.582808 -121.834154 80 229ft 20kts
24-Jul-18 20:37 36.590535 -121.855227 290 607ft 137kts
24-Jul-18 20:38 36.620470 -121.882649 341 2821ft 158kts
24-Jul-18 20:39 36.658028 -121.895383 336 4303ft 169kts
24-Jul-18 20:40 36.675182 -121.942741 290 7951ft 161kts
24-Jul-18 20:41 36.692499 -121.995037 295 10922ft 171kts
24-Jul-18 20:42 36.719275 -122.066341 296 11980ft 266kts
24-Jul-18 20:43 36.764037 -122.148136 321 11993ft 305kts
24-Jul-18 20:44 36.819018 -122.199711 324 13522ft 268kts
24-Jul-18 20:45 36.888690 -122.262053 323 15398ft 258kts
24-Jul-18 20:46 36.946921 -122.313803 323 16587ft 259kts
24-Jul-18 20:47 37.005680 -122.365829 322 17680ft 256kts
24-Jul-18 20:48 37.053200 -122.408158 321 18657ft 251kts
24-Jul-18 20:49 37.111807 -122.450578 334 19684ft 256kts
24-Jul-18 20:50 37.183817 -122.433424 13 20655ft 280kts
24-Jul-18 20:51 37.257506 -122.401382 10 21626ft 283kts
24-Jul-18 20:52 37.324777 -122.433897 329 22585ft 273kts
24-Jul-18 20:53 37.407204 -122.480599 329 23354ft 289kts
24-Jul-18 20:54 37.468441 -122.515505 329 23749ft 295kts
24-Jul-18 20:55 37.543164 -122.558208 329 24131ft 301kts
24-Jul-18 20:56 37.620106 -122.602290 329 24135ft 310kts
24-Jul-18 20:57 37.698301 -122.647168 329 24141ft 312kts
24-Jul-18 20:58 37.777002 -122.692516 328 24146ft 314kts
24-Jul-18 20:59 37.856436 -122.738356 328 24115ft 315kts
24-Jul-18 21:00 37.935938 -122.784280 328 24086ft 316kts
24-Jul-18 21:01 38.017432 -122.831551 329 24086ft 330kts
24-Jul-18 21:02 38.104119 -122.865492 351 24085ft 348kts
24-Jul-18 21:03 38.201174 -122.867754 353 24076ft 351kts
24-Jul-18 21:04 38.298775 -122.868037 354 24073ft 352kts
24-Jul-18 21:05 38.396147 -122.868182 354 24073ft 352kts
24-Jul-18 21:06 38.493377 -122.868319 354 24092ft 351kts
24-Jul-18 21:07 38.581025 -122.868425 354 24092ft 351kts
24-Jul-18 21:08 38.678146 -122.868547 354 24093ft 352kts
24-Jul-18 21:09 38.775584 -122.868667 354 24093ft 352kts
24-Jul-18 21:10 38.873026 -122.868732 354 24093ft 352kts
24-Jul-18 21:11 38.970884 -122.868877 354 24102ft 353kts
24-Jul-18 21:12 39.068753 -122.868992 354 24112ft 355kts
24-Jul-18 21:13 39.165466 -122.869118 354 24108ft 356kts
24-Jul-18 21:14 39.264023 -122.869249 354 24109ft 356kts
24-Jul-18 21:15 39.362958 -122.869363 354 24109ft 356kts
24-Jul-18 21:16 39.461782 -122.869482 354 24110ft 357kts
24-Jul-18 21:17 39.560589 -122.869618 354 24109ft 357kts
24-Jul-18 21:18 39.659434 -122.869746 354 24107ft 357kts
24-Jul-18 21:19 39.758604 -122.869873 354 24060ft 358kts
24-Jul-18 21:20 39.858265 -122.870030 354 23994ft 359kts
24-Jul-18 21:21 39.957122 -122.870136 354 23993ft 358kts
24-Jul-18 21:22 40.054992 -122.870268 354 23993ft 358kts
24-Jul-18 21:23 40.151974 -122.870389 354 23989ft 358kts
24-Jul-18 21:24 40.250760 -122.870512 354 23985ft 357kts
24-Jul-18 21:25 40.349889 -122.870641 354 23981ft 358kts
24-Jul-18 21:26 40.448797 -122.870770 354 23982ft 358kts
24-Jul-18 21:27 40.547927 -122.870904 354 23982ft 358kts
24-Jul-18 21:28 40.647076 -122.871033 354 23982ft 358kts
24-Jul-18 21:29 40.746209 -122.871165 354 23983ft 358kts
24-Jul-18 21:30 40.845267 -122.871300 354 23983ft 358kts
24-Jul-18 21:31 40.944021 -122.871431 354 23984ft 358kts
24-Jul-18 21:32 41.043312 -122.871604 355 24067ft 358kts
24-Jul-18 21:33 41.139251 -122.871783 356 24169ft 360kts
24-Jul-18 21:34 41.239057 -122.871934 356 24172ft 362kts
24-Jul-18 21:35 41.339574 -122.872016 357 24171ft 363kts
24-Jul-18 21:36 41.442650 -122.872039 357 22832ft 380kts
24-Jul-18 21:37 41.547904 -122.872133 357 21028ft 376kts
24-Jul-18 21:38 41.650246 -122.872242 358 19227ft 366kts
24-Jul-18 21:39 41.750382 -122.872351 358 17432ft 361kts
24-Jul-18 21:40 41.849148 -122.872575 358 15655ft 347kts
24-Jul-18 21:41 41.943326 -122.872707 358 13765ft 329kts
24-Jul-18 21:42 42.030161 -122.872857 359 11569ft 305kts
24-Jul-18 21:43 42.111977 -122.872973 0 9413ft 296kts
24-Jul-18 21:44 42.188628 -122.861538 8 7638ft 282kts
24-Jul-18 21:45 42.267033 -122.843399 13 4728ft 280kts
24-Jul-18 21:46 42.333978 -122.852514 342 2441ft 194kts
24-Jul-18 21:47 42.368168 -122.869721 336 1320ft 82kts
24-Jul-18 21:48 42.372144 -122.874276 295 1312ft 19kts

Navigation Log

Ident Type
Flight plan parsing failed, navigation log unavailable